sensor_id;sensor_type;location;lat;lon;timestamp;P1;durP1;ratioP1;P2;durP2;ratioP2
23280;SDS011;11809;56.390;-3.266;2024-01-07T13:23:12;11.88;;;3.20;;
23280;SDS011;11809;56.390;-3.266;2024-01-07T13:25:44;31.23;;;3.85;;
23280;SDS011;11809;56.390;-3.266;2024-01-07T13:28:15;13.18;;;2.97;;
23280;SDS011;11809;56.390;-3.266;2024-01-07T13:30:47;6.20;;;3.40;;
23280;SDS011;11809;56.390;-3.266;2024-01-07T13:33:18;7.47;;;2.60;;
23280;SDS011;11809;56.390;-3.266;2024-01-07T13:35:49;7.03;;;2.88;;
23280;SDS011;11809;56.390;-3.266;2024-01-07T13:38:22;9.50;;;3.58;;
23280;SDS011;11809;56.390;-3.266;2024-01-07T13:40:53;10.55;;;3.28;;
23280;SDS011;11809;56.390;-3.266;2024-01-07T13:43:25;6.25;;;2.60;;
23280;SDS011;11809;56.390;-3.266;2024-01-07T13:45:56;24.65;;;4.68;;
23280;SDS011;11809;56.390;-3.266;2024-01-07T13:48:27;20.10;;;3.22;;
23280;SDS011;11809;56.390;-3.266;2024-01-07T13:50:58;32.17;;;3.80;;
23280;SDS011;11809;56.390;-3.266;2024-01-07T13:53:32;38.78;;;7.03;;
23280;SDS011;11809;56.390;-3.266;2024-01-07T13:56:02;25.48;;;7.90;;
23280;SDS011;11809;56.390;-3.266;2024-01-07T13:58:35;36.15;;;9.45;;
23280;SDS011;11809;56.390;-3.266;2024-01-07T14:01:08;25.60;;;9.07;;
23280;SDS011;11809;56.390;-3.266;2024-01-07T14:03:38;24.08;;;9.68;;
23280;SDS011;11809;56.390;-3.266;2024-01-07T14:06:09;32.83;;;14.10;;
23280;SDS011;11809;56.390;-3.266;2024-01-07T14:08:42;27.98;;;12.55;;
23280;SDS011;11809;56.390;-3.266;2024-01-07T14:11:13;27.67;;;12.30;;
23280;SDS011;11809;56.390;-3.266;2024-01-07T14:16:14;24.33;;;10.27;;
23280;SDS011;11809;56.390;-3.266;2024-01-07T14:18:45;22.00;;;10.73;;
23280;SDS011;11809;56.390;-3.266;2024-01-07T14:21:16;22.30;;;10.65;;
23280;SDS011;11809;56.390;-3.266;2024-01-07T14:23:49;21.70;;;13.95;;
23280;SDS011;11809;56.390;-3.266;2024-01-07T14:26:19;25.02;;;12.13;;
23280;SDS011;11809;56.390;-3.266;2024-01-07T14:28:50;24.45;;;11.15;;
23280;SDS011;11809;56.390;-3.266;2024-01-07T14:31:39;27.92;;;10.25;;
23280;SDS011;11809;56.390;-3.266;2024-01-07T14:34:10;24.45;;;12.13;;
23280;SDS011;11809;56.390;-3.266;2024-01-07T14:39:14;25.57;;;11.60;;
23280;SDS011;11809;56.390;-3.266;2024-01-07T14:41:46;23.55;;;14.85;;
23280;SDS011;11809;56.390;-3.266;2024-01-07T14:44:16;30.45;;;15.88;;
23280;SDS011;11809;56.390;-3.266;2024-01-07T14:47:05;39.05;;;21.98;;
23280;SDS011;11809;56.390;-3.266;2024-01-07T14:49:36;30.10;;;17.25;;
23280;SDS011;11809;56.390;-3.266;2024-01-07T14:52:06;23.13;;;14.50;;
23280;SDS011;11809;56.390;-3.266;2024-01-07T14:54:40;19.70;;;11.20;;
23280;SDS011;11809;56.390;-3.266;2024-01-07T14:57:10;21.23;;;10.02;;
23280;SDS011;11809;56.390;-3.266;2024-01-07T14:59:41;15.13;;;8.30;;
23280;SDS011;11809;56.390;-3.266;2024-01-07T15:02:11;27.30;;;10.25;;
23280;SDS011;11809;56.390;-3.266;2024-01-07T15:04:42;17.67;;;9.15;;
23280;SDS011;11809;56.390;-3.266;2024-01-07T15:07:13;13.13;;;8.23;;
23280;SDS011;11809;56.390;-3.266;2024-01-07T15:09:50;13.45;;;7.65;;
23280;SDS011;11809;56.390;-3.266;2024-01-07T15:12:21;10.18;;;6.57;;
23280;SDS011;11809;56.390;-3.266;2024-01-07T15:14:52;11.30;;;6.30;;
23280;SDS011;11809;56.390;-3.266;2024-01-07T15:19:54;14.07;;;5.05;;
23280;SDS011;11809;56.390;-3.266;2024-01-07T15:22:25;7.97;;;4.70;;
23280;SDS011;11809;56.390;-3.266;2024-01-07T15:24:58;12.35;;;5.10;;
23280;SDS011;11809;56.390;-3.266;2024-01-07T15:27:32;10.48;;;4.57;;
23280;SDS011;11809;56.390;-3.266;2024-01-07T15:30:03;16.05;;;4.93;;
23280;SDS011;11809;56.390;-3.266;2024-01-07T15:32:35;11.35;;;4.45;;
23280;SDS011;11809;56.390;-3.266;2024-01-07T15:35:06;13.57;;;4.07;;
23280;SDS011;11809;56.390;-3.266;2024-01-07T15:40:11;7.97;;;3.70;;
23280;SDS011;11809;56.390;-3.266;2024-01-07T15:42:42;9.93;;;3.35;;
23280;SDS011;11809;56.390;-3.266;2024-01-07T15:45:13;9.35;;;3.38;;
23280;SDS011;11809;56.390;-3.266;2024-01-07T15:47:44;21.88;;;4.80;;
23280;SDS011;11809;56.390;-3.266;2024-01-07T15:50:15;23.70;;;6.75;;
23280;SDS011;11809;56.390;-3.266;2024-01-07T15:55:19;42.28;;;5.40;;
23280;SDS011;11809;56.390;-3.266;2024-01-07T15:57:50;24.75;;;4.10;;
23280;SDS011;11809;56.390;-3.266;2024-01-07T16:00:20;15.63;;;4.22;;
23280;SDS011;11809;56.390;-3.266;2024-01-07T16:02:52;22.98;;;4.13;;
23280;SDS011;11809;56.390;-3.266;2024-01-07T16:05:25;29.30;;;4.68;;
23280;SDS011;11809;56.390;-3.266;2024-01-07T16:07:57;11.23;;;3.30;;
23280;SDS011;11809;56.390;-3.266;2024-01-07T16:10:31;9.10;;;2.90;;
23280;SDS011;11809;56.390;-3.266;2024-01-07T16:13:02;31.77;;;4.47;;
23280;SDS011;11809;56.390;-3.266;2024-01-07T16:15:33;20.50;;;3.50;;
23280;SDS011;11809;56.390;-3.266;2024-01-07T16:18:04;18.38;;;3.65;;
23280;SDS011;11809;56.390;-3.266;2024-01-07T16:23:05;18.80;;;3.13;;
23280;SDS011;11809;56.390;-3.266;2024-01-07T16:25:41;11.88;;;4.18;;
23280;SDS011;11809;56.390;-3.266;2024-01-07T16:28:12;9.90;;;3.85;;
23280;SDS011;11809;56.390;-3.266;2024-01-07T16:30:43;7.75;;;3.45;;
23280;SDS011;11809;56.390;-3.266;2024-01-07T16:33:16;7.88;;;4.32;;
23280;SDS011;11809;56.390;-3.266;2024-01-07T16:35:45;14.57;;;5.65;;
23280;SDS011;11809;56.390;-3.266;2024-01-07T16:38:16;12.32;;;5.85;;
23280;SDS011;11809;56.390;-3.266;2024-01-07T16:40:49;12.35;;;5.70;;
23280;SDS011;11809;56.390;-3.266;2024-01-07T16:43:20;10.88;;;5.45;;
23280;SDS011;11809;56.390;-3.266;2024-01-07T16:45:52;13.20;;;5.18;;
23280;SDS011;11809;56.390;-3.266;2024-01-07T16:48:23;10.30;;;5.53;;
23280;SDS011;11809;56.390;-3.266;2024-01-07T16:51:13;9.97;;;4.87;;
23280;SDS011;11809;56.390;-3.266;2024-01-07T16:53:47;9.88;;;5.30;;
23280;SDS011;11809;56.390;-3.266;2024-01-07T16:56:21;7.13;;;4.95;;
23280;SDS011;11809;56.390;-3.266;2024-01-07T16:58:52;7.38;;;4.65;;
23280;SDS011;11809;56.390;-3.266;2024-01-07T17:01:25;8.15;;;4.88;;
23280;SDS011;11809;56.390;-3.266;2024-01-07T17:03:56;14.25;;;5.10;;
23280;SDS011;11809;56.390;-3.266;2024-01-07T17:06:27;6.72;;;4.60;;
23280;SDS011;11809;56.390;-3.266;2024-01-07T17:08:59;12.73;;;5.15;;
23280;SDS011;11809;56.390;-3.266;2024-01-07T17:11:33;7.28;;;4.15;;
23280;SDS011;11809;56.390;-3.266;2024-01-07T17:14:05;14.10;;;5.03;;
23280;SDS011;11809;56.390;-3.266;2024-01-07T17:16:36;15.98;;;4.75;;
23280;SDS011;11809;56.390;-3.266;2024-01-07T17:19:07;21.23;;;5.45;;
23280;SDS011;11809;56.390;-3.266;2024-01-07T17:21:39;24.90;;;5.10;;
23280;SDS011;11809;56.390;-3.266;2024-01-07T17:24:16;27.75;;;5.22;;
23280;SDS011;11809;56.390;-3.266;2024-01-07T17:26:51;19.80;;;5.18;;
23280;SDS011;11809;56.390;-3.266;2024-01-07T17:29:23;17.98;;;5.05;;
23280;SDS011;11809;56.390;-3.266;2024-01-07T17:31:54;18.73;;;5.22;;
23280;SDS011;11809;56.390;-3.266;2024-01-07T17:34:26;13.88;;;4.45;;
23280;SDS011;11809;56.390;-3.266;2024-01-07T17:36:58;13.63;;;4.10;;
23280;SDS011;11809;56.390;-3.266;2024-01-07T17:39:30;13.55;;;4.68;;
23280;SDS011;11809;56.390;-3.266;2024-01-07T17:42:05;10.52;;;4.25;;
23280;SDS011;11809;56.390;-3.266;2024-01-07T17:44:37;16.02;;;4.10;;
23280;SDS011;11809;56.390;-3.266;2024-01-07T17:47:09;12.25;;;3.90;;
23280;SDS011;11809;56.390;-3.266;2024-01-07T17:49:43;7.78;;;3.90;;
23280;SDS011;11809;56.390;-3.266;2024-01-07T17:52:15;8.68;;;3.78;;
23280;SDS011;11809;56.390;-3.266;2024-01-07T17:54:46;10.77;;;3.90;;
23280;SDS011;11809;56.390;-3.266;2024-01-07T17:59:50;8.18;;;3.63;;
23280;SDS011;11809;56.390;-3.266;2024-01-07T18:02:22;7.82;;;4.00;;
23280;SDS011;11809;56.390;-3.266;2024-01-07T18:04:53;12.23;;;3.92;;
23280;SDS011;11809;56.390;-3.266;2024-01-07T18:07:25;15.85;;;3.70;;
23280;SDS011;11809;56.390;-3.266;2024-01-07T18:10:00;12.77;;;3.90;;
23280;SDS011;11809;56.390;-3.266;2024-01-07T18:12:36;13.50;;;3.72;;
23280;SDS011;11809;56.390;-3.266;2024-01-07T18:15:11;11.30;;;3.63;;
23280;SDS011;11809;56.390;-3.266;2024-01-07T18:17:42;7.22;;;3.30;;
23280;SDS011;11809;56.390;-3.266;2024-01-07T18:20:14;6.20;;;3.55;;
23280;SDS011;11809;56.390;-3.266;2024-01-07T18:22:45;11.85;;;3.85;;
23280;SDS011;11809;56.390;-3.266;2024-01-07T18:25:16;9.38;;;3.70;;
23280;SDS011;11809;56.390;-3.266;2024-01-07T18:27:49;11.15;;;3.92;;
23280;SDS011;11809;56.390;-3.266;2024-01-07T18:30:20;8.23;;;3.88;;
23280;SDS011;11809;56.390;-3.266;2024-01-07T18:32:51;9.65;;;4.85;;
23280;SDS011;11809;56.390;-3.266;2024-01-07T18:37:53;11.18;;;5.15;;
23280;SDS011;11809;56.390;-3.266;2024-01-07T18:40:24;12.60;;;5.60;;
23280;SDS011;11809;56.390;-3.266;2024-01-07T18:42:57;10.98;;;5.40;;
23280;SDS011;11809;56.390;-3.266;2024-01-07T18:45:29;8.52;;;5.20;;
23280;SDS011;11809;56.390;-3.266;2024-01-07T18:48:03;15.85;;;5.28;;
23280;SDS011;11809;56.390;-3.266;2024-01-07T18:50:35;11.90;;;5.70;;
23280;SDS011;11809;56.390;-3.266;2024-01-07T18:53:05;14.68;;;6.57;;
23280;SDS011;11809;56.390;-3.266;2024-01-07T18:58:13;19.90;;;5.38;;
23280;SDS011;11809;56.390;-3.266;2024-01-07T19:00:44;11.40;;;5.18;;
23280;SDS011;11809;56.390;-3.266;2024-01-07T19:03:15;14.27;;;5.32;;
23280;SDS011;11809;56.390;-3.266;2024-01-07T19:05:47;10.20;;;5.07;;
23280;SDS011;11809;56.390;-3.266;2024-01-07T19:08:18;16.63;;;5.18;;
23280;SDS011;11809;56.390;-3.266;2024-01-07T19:10:50;14.15;;;5.18;;
23280;SDS011;11809;56.390;-3.266;2024-01-07T19:15:59;9.80;;;4.70;;
23280;SDS011;11809;56.390;-3.266;2024-01-07T19:18:31;13.82;;;4.82;;
23280;SDS011;11809;56.390;-3.266;2024-01-07T19:21:04;13.50;;;5.32;;
23280;SDS011;11809;56.390;-3.266;2024-01-07T19:23:37;12.68;;;5.15;;
23280;SDS011;11809;56.390;-3.266;2024-01-07T19:26:09;20.83;;;5.88;;
23280;SDS011;11809;56.390;-3.266;2024-01-07T19:28:44;16.15;;;4.97;;
23280;SDS011;11809;56.390;-3.266;2024-01-07T19:31:15;15.73;;;4.88;;
23280;SDS011;11809;56.390;-3.266;2024-01-07T19:36:17;8.45;;;4.75;;
23280;SDS011;11809;56.390;-3.266;2024-01-07T19:38:50;11.45;;;4.78;;
23280;SDS011;11809;56.390;-3.266;2024-01-07T19:41:28;12.95;;;4.63;;
23280;SDS011;11809;56.390;-3.266;2024-01-07T19:44:05;10.27;;;4.30;;
23280;SDS011;11809;56.390;-3.266;2024-01-07T19:46:39;16.10;;;4.90;;
23280;SDS011;11809;56.390;-3.266;2024-01-07T19:49:09;22.70;;;5.03;;
23280;SDS011;11809;56.390;-3.266;2024-01-07T19:51:43;14.95;;;4.80;;
23280;SDS011;11809;56.390;-3.266;2024-01-07T19:54:17;14.90;;;4.68;;
23280;SDS011;11809;56.390;-3.266;2024-01-07T19:56:51;24.63;;;5.25;;
23280;SDS011;11809;56.390;-3.266;2024-01-07T19:59:28;16.77;;;4.80;;
23280;SDS011;11809;56.390;-3.266;2024-01-07T20:01:59;11.80;;;4.25;;
23280;SDS011;11809;56.390;-3.266;2024-01-07T20:07:01;11.70;;;4.80;;
23280;SDS011;11809;56.390;-3.266;2024-01-07T20:09:33;17.58;;;5.78;;
23280;SDS011;11809;56.390;-3.266;2024-01-07T20:12:05;12.82;;;4.72;;
23280;SDS011;11809;56.390;-3.266;2024-01-07T20:14:44;11.02;;;5.03;;
23280;SDS011;11809;56.390;-3.266;2024-01-07T20:17:17;15.85;;;5.57;;
23280;SDS011;11809;56.390;-3.266;2024-01-07T20:19:50;14.68;;;5.57;;
23280;SDS011;11809;56.390;-3.266;2024-01-07T20:22:22;17.15;;;5.50;;
23280;SDS011;11809;56.390;-3.266;2024-01-07T20:24:53;13.25;;;5.50;;
23280;SDS011;11809;56.390;-3.266;2024-01-07T20:27:30;14.05;;;5.70;;
23280;SDS011;11809;56.390;-3.266;2024-01-07T20:30:07;15.90;;;5.60;;
23280;SDS011;11809;56.390;-3.266;2024-01-07T20:32:41;8.63;;;5.38;;
23280;SDS011;11809;56.390;-3.266;2024-01-07T20:35:15;9.02;;;5.95;;
23280;SDS011;11809;56.390;-3.266;2024-01-07T20:37:47;8.77;;;6.22;;
23280;SDS011;11809;56.390;-3.266;2024-01-07T20:40:19;11.00;;;6.00;;
23280;SDS011;11809;56.390;-3.266;2024-01-07T20:42:51;15.82;;;6.63;;
23280;SDS011;11809;56.390;-3.266;2024-01-07T20:45:25;18.60;;;5.50;;
23280;SDS011;11809;56.390;-3.266;2024-01-07T20:47:59;11.15;;;5.13;;
23280;SDS011;11809;56.390;-3.266;2024-01-07T20:50:34;10.63;;;5.43;;
23280;SDS011;11809;56.390;-3.266;2024-01-07T20:53:08;7.43;;;5.45;;
23280;SDS011;11809;56.390;-3.266;2024-01-07T20:55:40;11.13;;;5.60;;
23280;SDS011;11809;56.390;-3.266;2024-01-07T20:58:12;9.43;;;5.25;;
23280;SDS011;11809;56.390;-3.266;2024-01-07T21:00:46;9.07;;;5.53;;
23280;SDS011;11809;56.390;-3.266;2024-01-07T21:03:18;9.77;;;5.88;;
23280;SDS011;11809;56.390;-3.266;2024-01-07T21:05:50;9.10;;;5.78;;
23280;SDS011;11809;56.390;-3.266;2024-01-07T21:08:24;10.18;;;5.90;;
23280;SDS011;11809;56.390;-3.266;2024-01-07T21:11:01;8.15;;;5.65;;
23280;SDS011;11809;56.390;-3.266;2024-01-07T21:13:38;6.53;;;5.72;;
23280;SDS011;11809;56.390;-3.266;2024-01-07T21:16:13;9.02;;;6.35;;
23280;SDS011;11809;56.390;-3.266;2024-01-07T21:18:47;6.63;;;5.82;;
23280;SDS011;11809;56.390;-3.266;2024-01-07T21:21:20;7.35;;;5.65;;
23280;SDS011;11809;56.390;-3.266;2024-01-07T21:23:52;8.07;;;5.60;;
23280;SDS011;11809;56.390;-3.266;2024-01-07T21:26:26;7.65;;;6.15;;
23280;SDS011;11809;56.390;-3.266;2024-01-07T21:28:59;8.63;;;5.82;;
23280;SDS011;11809;56.390;-3.266;2024-01-07T21:31:37;6.65;;;5.53;;
23280;SDS011;11809;56.390;-3.266;2024-01-07T21:34:12;6.77;;;5.73;;
23280;SDS011;11809;56.390;-3.266;2024-01-07T21:36:48;7.28;;;5.80;;
23280;SDS011;11809;56.390;-3.266;2024-01-07T21:39:20;8.02;;;5.95;;
23280;SDS011;11809;56.390;-3.266;2024-01-07T21:41:53;7.20;;;5.47;;
23280;SDS011;11809;56.390;-3.266;2024-01-07T21:44:25;7.32;;;5.53;;
23280;SDS011;11809;56.390;-3.266;2024-01-07T21:46:59;6.43;;;5.70;;
23280;SDS011;11809;56.390;-3.266;2024-01-07T21:49:32;6.95;;;5.75;;
23280;SDS011;11809;56.390;-3.266;2024-01-07T21:52:04;6.80;;;5.63;;
23280;SDS011;11809;56.390;-3.266;2024-01-07T21:54:37;7.05;;;5.85;;
23280;SDS011;11809;56.390;-3.266;2024-01-07T21:57:10;6.57;;;5.45;;
23280;SDS011;11809;56.390;-3.266;2024-01-07T21:59:48;6.95;;;5.15;;
23280;SDS011;11809;56.390;-3.266;2024-01-07T22:02:22;7.53;;;5.60;;
23280;SDS011;11809;56.390;-3.266;2024-01-07T22:04:56;6.22;;;5.45;;
23280;SDS011;11809;56.390;-3.266;2024-01-07T22:07:27;6.78;;;5.57;;
23280;SDS011;11809;56.390;-3.266;2024-01-07T22:10:01;6.35;;;5.22;;
23280;SDS011;11809;56.390;-3.266;2024-01-07T22:12:36;6.20;;;5.07;;
23280;SDS011;11809;56.390;-3.266;2024-01-07T22:15:07;6.28;;;5.45;;
23280;SDS011;11809;56.390;-3.266;2024-01-07T22:17:43;6.60;;;5.13;;
23280;SDS011;11809;56.390;-3.266;2024-01-07T22:20:14;13.48;;;5.10;;
23280;SDS011;11809;56.390;-3.266;2024-01-07T22:22:45;8.65;;;5.70;;
23280;SDS011;11809;56.390;-3.266;2024-01-07T22:25:19;7.95;;;5.43;;
23280;SDS011;11809;56.390;-3.266;2024-01-07T22:27:52;9.55;;;5.57;;
23280;SDS011;11809;56.390;-3.266;2024-01-07T22:30:23;15.90;;;5.88;;
23280;SDS011;11809;56.390;-3.266;2024-01-07T22:33:06;11.85;;;5.80;;
23280;SDS011;11809;56.390;-3.266;2024-01-07T22:35:37;8.48;;;5.65;;
23280;SDS011;11809;56.390;-3.266;2024-01-07T22:38:07;7.70;;;5.57;;
23280;SDS011;11809;56.390;-3.266;2024-01-07T22:40:38;7.30;;;5.80;;
23280;SDS011;11809;56.390;-3.266;2024-01-07T22:43:10;8.60;;;5.78;;
23280;SDS011;11809;56.390;-3.266;2024-01-07T22:45:44;9.93;;;5.53;;
23280;SDS011;11809;56.390;-3.266;2024-01-07T22:48:18;7.68;;;5.55;;
23280;SDS011;11809;56.390;-3.266;2024-01-07T22:50:49;7.97;;;5.20;;
23280;SDS011;11809;56.390;-3.266;2024-01-07T22:53:21;6.95;;;5.53;;
23280;SDS011;11809;56.390;-3.266;2024-01-07T22:55:52;9.82;;;5.82;;
23280;SDS011;11809;56.390;-3.266;2024-01-07T22:58:24;8.70;;;5.68;;
23280;SDS011;11809;56.390;-3.266;2024-01-07T23:00:54;8.88;;;5.32;;
23280;SDS011;11809;56.390;-3.266;2024-01-07T23:03:28;7.05;;;5.55;;
23280;SDS011;11809;56.390;-3.266;2024-01-07T23:05:58;6.35;;;5.18;;
23280;SDS011;11809;56.390;-3.266;2024-01-07T23:08:29;7.40;;;5.55;;
23280;SDS011;11809;56.390;-3.266;2024-01-07T23:11:00;8.18;;;5.20;;
23280;SDS011;11809;56.390;-3.266;2024-01-07T23:13:31;8.63;;;5.45;;
23280;SDS011;11809;56.390;-3.266;2024-01-07T23:16:02;7.37;;;5.70;;
23280;SDS011;11809;56.390;-3.266;2024-01-07T23:21:07;7.57;;;5.68;;
23280;SDS011;11809;56.390;-3.266;2024-01-07T23:23:38;6.18;;;4.97;;
23280;SDS011;11809;56.390;-3.266;2024-01-07T23:26:09;5.70;;;4.93;;
23280;SDS011;11809;56.390;-3.266;2024-01-07T23:28:41;6.60;;;4.90;;
23280;SDS011;11809;56.390;-3.266;2024-01-07T23:31:12;7.70;;;5.65;;
23280;SDS011;11809;56.390;-3.266;2024-01-07T23:33:45;6.85;;;5.07;;
23280;SDS011;11809;56.390;-3.266;2024-01-07T23:36:16;5.85;;;5.13;;
23280;SDS011;11809;56.390;-3.266;2024-01-07T23:38:48;5.43;;;4.90;;
23280;SDS011;11809;56.390;-3.266;2024-01-07T23:41:19;5.72;;;4.60;;
23280;SDS011;11809;56.390;-3.266;2024-01-07T23:43:50;6.03;;;4.88;;
23280;SDS011;11809;56.390;-3.266;2024-01-07T23:46:21;5.03;;;4.43;;
23280;SDS011;11809;56.390;-3.266;2024-01-07T23:48:54;5.43;;;4.80;;
23280;SDS011;11809;56.390;-3.266;2024-01-07T23:51:25;5.95;;;4.65;;
23280;SDS011;11809;56.390;-3.266;2024-01-07T23:53:55;5.63;;;4.80;;
23280;SDS011;11809;56.390;-3.266;2024-01-07T23:56:26;5.57;;;4.80;;
23280;SDS011;11809;56.390;-3.266;2024-01-07T23:58:57;5.32;;;4.47;;
